sensor_id;sensor_type;location;lat;lon;timestamp;temperature;humidity
47382;DHT22;33128;51.580;5.170;2023-10-13T00:00:56;17.70;99.90
47382;DHT22;33128;51.580;5.170;2023-10-13T00:03:23;17.60;99.90
47382;DHT22;33128;51.580;5.170;2023-10-13T00:05:50;17.60;99.90
47382;DHT22;33128;51.580;5.170;2023-10-13T00:08:18;17.60;99.90
47382;DHT22;33128;51.580;5.170;2023-10-13T00:10:46;17.60;99.90
47382;DHT22;33128;51.580;5.170;2023-10-13T00:13:13;17.70;99.90
47382;DHT22;33128;51.580;5.170;2023-10-13T00:15:44;17.60;99.90
47382;DHT22;33128;51.580;5.170;2023-10-13T00:18:31;17.60;99.90
47382;DHT22;33128;51.580;5.170;2023-10-13T00:21:01;17.60;99.90
47382;DHT22;33128;51.580;5.170;2023-10-13T00:23:40;17.60;99.90
47382;DHT22;33128;51.580;5.170;2023-10-13T00:26:22;17.50;99.90
47382;DHT22;33128;51.580;5.170;2023-10-13T00:28:50;17.50;99.90
47382;DHT22;33128;51.580;5.170;2023-10-13T00:31:25;17.50;99.90
47382;DHT22;33128;51.580;5.170;2023-10-13T00:33:57;17.50;99.90
47382;DHT22;33128;51.580;5.170;2023-10-13T00:36:26;17.50;99.90
47382;DHT22;33128;51.580;5.170;2023-10-13T00:38:52;17.50;99.90
47382;DHT22;33128;51.580;5.170;2023-10-13T00:41:18;17.40;99.90
47382;DHT22;33128;51.580;5.170;2023-10-13T00:43:58;17.40;99.90
47382;DHT22;33128;51.580;5.170;2023-10-13T00:46:32;17.50;99.90
47382;DHT22;33128;51.580;5.170;2023-10-13T00:48:59;17.50;99.90
47382;DHT22;33128;51.580;5.170;2023-10-13T00:51:25;17.40;99.90
47382;DHT22;33128;51.580;5.170;2023-10-13T00:54:07;17.40;99.90
47382;DHT22;33128;51.580;5.170;2023-10-13T00:56:41;17.40;99.90
47382;DHT22;33128;51.580;5.170;2023-10-13T00:59:26;17.40;99.90
47382;DHT22;33128;51.580;5.170;2023-10-13T01:01:52;17.40;99.90
47382;DHT22;33128;51.580;5.170;2023-10-13T01:04:21;17.40;99.90
47382;DHT22;33128;51.580;5.170;2023-10-13T01:06:52;17.40;99.90
47382;DHT22;33128;51.580;5.170;2023-10-13T01:09:18;17.40;99.90
47382;DHT22;33128;51.580;5.170;2023-10-13T01:14:10;17.40;99.90
47382;DHT22;33128;51.580;5.170;2023-10-13T01:16:43;17.40;99.90
47382;DHT22;33128;51.580;5.170;2023-10-13T01:19:16;17.30;99.90
47382;DHT22;33128;51.580;5.170;2023-10-13T01:21:50;17.30;99.90
47382;DHT22;33128;51.580;5.170;2023-10-13T01:24:15;17.40;99.90
47382;DHT22;33128;51.580;5.170;2023-10-13T01:26:48;17.40;99.90
47382;DHT22;33128;51.580;5.170;2023-10-13T01:29:16;17.40;99.90
47382;DHT22;33128;51.580;5.170;2023-10-13T01:31:45;17.30;99.90
47382;DHT22;33128;51.580;5.170;2023-10-13T01:34:14;17.30;99.90
47382;DHT22;33128;51.580;5.170;2023-10-13T01:36:45;17.30;99.90
47382;DHT22;33128;51.580;5.170;2023-10-13T01:39:11;17.20;99.90
47382;DHT22;33128;51.580;5.170;2023-10-13T01:41:42;17.20;99.90
47382;DHT22;33128;51.580;5.170;2023-10-13T01:44:08;17.30;99.90
47382;DHT22;33128;51.580;5.170;2023-10-13T01:46:37;17.30;99.90
47382;DHT22;33128;51.580;5.170;2023-10-13T01:49:03;17.20;99.90
47382;DHT22;33128;51.580;5.170;2023-10-13T01:51:28;17.20;99.90
47382;DHT22;33128;51.580;5.170;2023-10-13T01:53:54;17.30;99.90
47382;DHT22;33128;51.580;5.170;2023-10-13T01:56:23;17.30;99.90
47382;DHT22;33128;51.580;5.170;2023-10-13T01:58:52;17.30;99.90
47382;DHT22;33128;51.580;5.170;2023-10-13T02:01:19;17.20;99.90
47382;DHT22;33128;51.580;5.170;2023-10-13T02:03:55;17.20;99.90
47382;DHT22;33128;51.580;5.170;2023-10-13T02:06:32;17.30;99.90
47382;DHT22;33128;51.580;5.170;2023-10-13T02:09:03;17.20;99.90
47382;DHT22;33128;51.580;5.170;2023-10-13T02:11:43;17.20;99.90
47382;DHT22;33128;51.580;5.170;2023-10-13T02:16:40;17.10;99.90
47382;DHT22;33128;51.580;5.170;2023-10-13T02:21:35;17.30;99.90
47382;DHT22;33128;51.580;5.170;2023-10-13T02:24:11;17.80;99.90
47382;DHT22;33128;51.580;5.170;2023-10-13T02:26:44;17.70;99.90
47382;DHT22;33128;51.580;5.170;2023-10-13T02:29:09;17.80;99.90
47382;DHT22;33128;51.580;5.170;2023-10-13T02:31:39;17.80;99.90
47382;DHT22;33128;51.580;5.170;2023-10-13T02:34:05;17.70;99.90
47382;DHT22;33128;51.580;5.170;2023-10-13T02:36:37;17.90;99.90
47382;DHT22;33128;51.580;5.170;2023-10-13T02:39:12;18.00;99.90
47382;DHT22;33128;51.580;5.170;2023-10-13T02:41:42;17.80;99.90
47382;DHT22;33128;51.580;5.170;2023-10-13T02:44:13;17.80;99.90
47382;DHT22;33128;51.580;5.170;2023-10-13T02:46:59;17.90;99.90
47382;DHT22;33128;51.580;5.170;2023-10-13T02:49:31;17.90;99.90
47382;DHT22;33128;51.580;5.170;2023-10-13T02:52:00;17.90;99.90
47382;DHT22;33128;51.580;5.170;2023-10-13T02:54:31;18.00;99.90
47382;DHT22;33128;51.580;5.170;2023-10-13T02:56:59;17.90;99.90
47382;DHT22;33128;51.580;5.170;2023-10-13T02:59:30;17.90;99.90
47382;DHT22;33128;51.580;5.170;2023-10-13T03:02:06;18.00;99.90
47382;DHT22;33128;51.580;5.170;2023-10-13T03:04:54;18.00;99.90
47382;DHT22;33128;51.580;5.170;2023-10-13T03:07:25;17.90;99.90
47382;DHT22;33128;51.580;5.170;2023-10-13T03:09:54;17.80;99.90
47382;DHT22;33128;51.580;5.170;2023-10-13T03:12:23;17.90;99.90
47382;DHT22;33128;51.580;5.170;2023-10-13T03:14:53;18.00;99.90
47382;DHT22;33128;51.580;5.170;2023-10-13T03:17:42;18.00;99.90
47382;DHT22;33128;51.580;5.170;2023-10-13T03:20:15;17.90;99.90
47382;DHT22;33128;51.580;5.170;2023-10-13T03:22:44;17.90;99.90
47382;DHT22;33128;51.580;5.170;2023-10-13T03:25:11;18.00;99.90
47382;DHT22;33128;51.580;5.170;2023-10-13T03:27:43;18.10;99.90
47382;DHT22;33128;51.580;5.170;2023-10-13T03:30:18;18.10;99.90
47382;DHT22;33128;51.580;5.170;2023-10-13T03:32:45;18.10;99.90
47382;DHT22;33128;51.580;5.170;2023-10-13T03:35:15;18.20;99.90
47382;DHT22;33128;51.580;5.170;2023-10-13T03:37:51;18.10;99.90
47382;DHT22;33128;51.580;5.170;2023-10-13T03:40:16;18.30;99.90
47382;DHT22;33128;51.580;5.170;2023-10-13T03:42:55;18.20;99.90
47382;DHT22;33128;51.580;5.170;2023-10-13T03:45:26;18.20;99.90
47382;DHT22;33128;51.580;5.170;2023-10-13T03:47:53;18.20;99.90
47382;DHT22;33128;51.580;5.170;2023-10-13T03:50:19;18.20;99.90
47382;DHT22;33128;51.580;5.170;2023-10-13T03:52:58;18.30;99.90
47382;DHT22;33128;51.580;5.170;2023-10-13T03:55:28;18.30;99.90
47382;DHT22;33128;51.580;5.170;2023-10-13T03:57:54;18.40;99.90
47382;DHT22;33128;51.580;5.170;2023-10-13T04:00:21;18.40;99.90
47382;DHT22;33128;51.580;5.170;2023-10-13T04:02:50;18.30;99.90
47382;DHT22;33128;51.580;5.170;2023-10-13T04:05:32;18.40;99.90
47382;DHT22;33128;51.580;5.170;2023-10-13T04:08:26;18.40;99.90
47382;DHT22;33128;51.580;5.170;2023-10-13T04:10:56;18.30;99.90
47382;DHT22;33128;51.580;5.170;2023-10-13T04:13:22;18.40;99.90
47382;DHT22;33128;51.580;5.170;2023-10-13T04:16:08;18.60;99.90
47382;DHT22;33128;51.580;5.170;2023-10-13T04:18:49;18.30;99.90
47382;DHT22;33128;51.580;5.170;2023-10-13T04:21:24;18.40;99.90
47382;DHT22;33128;51.580;5.170;2023-10-13T04:24:02;18.40;99.90
47382;DHT22;33128;51.580;5.170;2023-10-13T04:26:54;18.40;99.90
47382;DHT22;33128;51.580;5.170;2023-10-13T04:29:39;18.50;99.90
47382;DHT22;33128;51.580;5.170;2023-10-13T04:32:22;18.50;99.90
47382;DHT22;33128;51.580;5.170;2023-10-13T04:35:04;18.30;99.90
47382;DHT22;33128;51.580;5.170;2023-10-13T04:37:44;18.40;99.90
47382;DHT22;33128;51.580;5.170;2023-10-13T04:40:40;18.50;99.90
47382;DHT22;33128;51.580;5.170;2023-10-13T04:43:26;18.50;99.90
47382;DHT22;33128;51.580;5.170;2023-10-13T04:45:59;18.70;99.90
47382;DHT22;33128;51.580;5.170;2023-10-13T04:48:39;18.40;99.90
47382;DHT22;33128;51.580;5.170;2023-10-13T04:51:05;18.40;99.90
47382;DHT22;33128;51.580;5.170;2023-10-13T04:54:04;18.60;99.90
47382;DHT22;33128;51.580;5.170;2023-10-13T04:56:36;18.50;99.90
47382;DHT22;33128;51.580;5.170;2023-10-13T04:59:08;18.50;99.90
47382;DHT22;33128;51.580;5.170;2023-10-13T05:01:44;18.60;99.90
47382;DHT22;33128;51.580;5.170;2023-10-13T05:04:28;18.50;99.90
47382;DHT22;33128;51.580;5.170;2023-10-13T05:07:04;18.50;99.90
47382;DHT22;33128;51.580;5.170;2023-10-13T05:09:49;18.50;99.90
47382;DHT22;33128;51.580;5.170;2023-10-13T05:12:33;18.60;99.90
47382;DHT22;33128;51.580;5.170;2023-10-13T05:15:19;18.50;99.90
47382;DHT22;33128;51.580;5.170;2023-10-13T05:18:04;18.50;99.90
47382;DHT22;33128;51.580;5.170;2023-10-13T05:20:48;18.40;99.90
47382;DHT22;33128;51.580;5.170;2023-10-13T05:23:32;18.50;99.90
47382;DHT22;33128;51.580;5.170;2023-10-13T05:26:16;18.50;99.90
47382;DHT22;33128;51.580;5.170;2023-10-13T05:29:00;18.40;99.90
47382;DHT22;33128;51.580;5.170;2023-10-13T05:31:48;18.50;99.90
47382;DHT22;33128;51.580;5.170;2023-10-13T05:34:33;18.50;99.90
47382;DHT22;33128;51.580;5.170;2023-10-13T05:37:17;18.50;99.90
47382;DHT22;33128;51.580;5.170;2023-10-13T05:40:04;18.40;99.90
47382;DHT22;33128;51.580;5.170;2023-10-13T05:42:48;18.40;99.90
47382;DHT22;33128;51.580;5.170;2023-10-13T05:45:35;18.30;99.90
47382;DHT22;33128;51.580;5.170;2023-10-13T05:48:22;18.30;99.90
47382;DHT22;33128;51.580;5.170;2023-10-13T05:51:07;18.40;99.90
47382;DHT22;33128;51.580;5.170;2023-10-13T05:53:51;18.90;99.90
47382;DHT22;33128;51.580;5.170;2023-10-13T05:56:35;19.20;99.90
47382;DHT22;33128;51.580;5.170;2023-10-13T05:59:19;19.20;99.90
47382;DHT22;33128;51.580;5.170;2023-10-13T06:02:03;19.30;99.90
47382;DHT22;33128;51.580;5.170;2023-10-13T06:04:53;19.30;99.90
47382;DHT22;33128;51.580;5.170;2023-10-13T06:07:37;19.30;99.90
47382;DHT22;33128;51.580;5.170;2023-10-13T06:10:21;19.30;99.90
47382;DHT22;33128;51.580;5.170;2023-10-13T06:13:06;19.30;99.90
47382;DHT22;33128;51.580;5.170;2023-10-13T06:15:50;19.40;99.90
47382;DHT22;33128;51.580;5.170;2023-10-13T06:18:34;19.30;99.90
47382;DHT22;33128;51.580;5.170;2023-10-13T06:21:20;19.20;99.90
47382;DHT22;33128;51.580;5.170;2023-10-13T06:24:04;19.20;99.90
47382;DHT22;33128;51.580;5.170;2023-10-13T06:26:48;19.10;99.90
47382;DHT22;33128;51.580;5.170;2023-10-13T06:29:32;19.10;99.90
47382;DHT22;33128;51.580;5.170;2023-10-13T06:31:58;19.10;99.90
47382;DHT22;33128;51.580;5.170;2023-10-13T06:34:29;19.10;99.90
47382;DHT22;33128;51.580;5.170;2023-10-13T06:37:08;19.10;99.90
47382;DHT22;33128;51.580;5.170;2023-10-13T06:39:56;19.10;99.90
47382;DHT22;33128;51.580;5.170;2023-10-13T06:42:23;19.10;99.90
47382;DHT22;33128;51.580;5.170;2023-10-13T06:44:55;19.10;99.90
47382;DHT22;33128;51.580;5.170;2023-10-13T06:47:25;19.10;99.90
47382;DHT22;33128;51.580;5.170;2023-10-13T06:49:53;19.10;99.90
47382;DHT22;33128;51.580;5.170;2023-10-13T06:52:22;19.10;99.90
47382;DHT22;33128;51.580;5.170;2023-10-13T06:54:53;19.10;99.90
47382;DHT22;33128;51.580;5.170;2023-10-13T06:57:19;19.10;99.90
47382;DHT22;33128;51.580;5.170;2023-10-13T06:59:48;19.00;99.90
47382;DHT22;33128;51.580;5.170;2023-10-13T07:02:14;19.00;99.90
47382;DHT22;33128;51.580;5.170;2023-10-13T07:04:49;19.00;99.90
47382;DHT22;33128;51.580;5.170;2023-10-13T07:07:22;19.10;99.90
47382;DHT22;33128;51.580;5.170;2023-10-13T07:09:49;19.10;99.90
47382;DHT22;33128;51.580;5.170;2023-10-13T07:12:21;19.10;99.90
47382;DHT22;33128;51.580;5.170;2023-10-13T07:14:53;19.20;99.90
47382;DHT22;33128;51.580;5.170;2023-10-13T07:17:42;19.20;99.90
47382;DHT22;33128;51.580;5.170;2023-10-13T07:20:10;19.20;99.90
47382;DHT22;33128;51.580;5.170;2023-10-13T07:22:49;19.30;99.90
47382;DHT22;33128;51.580;5.170;2023-10-13T07:25:32;19.30;99.90
47382;DHT22;33128;51.580;5.170;2023-10-13T07:28:06;19.30;99.90
47382;DHT22;33128;51.580;5.170;2023-10-13T07:30:35;19.30;99.90
47382;DHT22;33128;51.580;5.170;2023-10-13T07:33:15;19.30;99.90
47382;DHT22;33128;51.580;5.170;2023-10-13T07:35:45;19.30;99.90
47382;DHT22;33128;51.580;5.170;2023-10-13T07:38:16;19.30;99.90
47382;DHT22;33128;51.580;5.170;2023-10-13T07:40:43;19.40;99.90
47382;DHT22;33128;51.580;5.170;2023-10-13T07:43:16;19.40;99.90
47382;DHT22;33128;51.580;5.170;2023-10-13T07:45:47;19.40;99.90
47382;DHT22;33128;51.580;5.170;2023-10-13T07:48:16;19.30;99.90
47382;DHT22;33128;51.580;5.170;2023-10-13T07:51:08;19.30;99.90
47382;DHT22;33128;51.580;5.170;2023-10-13T07:53:45;19.30;99.90
47382;DHT22;33128;51.580;5.170;2023-10-13T07:56:14;19.30;99.90
47382;DHT22;33128;51.580;5.170;2023-10-13T07:58:44;19.30;99.90
47382;DHT22;33128;51.580;5.170;2023-10-13T08:01:25;19.20;99.90
47382;DHT22;33128;51.580;5.170;2023-10-13T08:03:52;19.30;99.90
47382;DHT22;33128;51.580;5.170;2023-10-13T08:06:43;19.20;99.90
47382;DHT22;33128;51.580;5.170;2023-10-13T08:09:10;19.20;99.90
47382;DHT22;33128;51.580;5.170;2023-10-13T08:11:56;19.20;99.90
47382;DHT22;33128;51.580;5.170;2023-10-13T08:14:22;19.30;99.90
47382;DHT22;33128;51.580;5.170;2023-10-13T08:16:58;19.30;99.90
47382;DHT22;33128;51.580;5.170;2023-10-13T08:19:30;19.40;99.90
47382;DHT22;33128;51.580;5.170;2023-10-13T08:22:06;19.30;99.90
47382;DHT22;33128;51.580;5.170;2023-10-13T08:24:40;19.30;99.90
47382;DHT22;33128;51.580;5.170;2023-10-13T08:27:07;19.40;99.90
47382;DHT22;33128;51.580;5.170;2023-10-13T08:29:52;19.40;99.90
47382;DHT22;33128;51.580;5.170;2023-10-13T08:32:21;19.30;99.90
47382;DHT22;33128;51.580;5.170;2023-10-13T08:34:53;19.40;99.90
47382;DHT22;33128;51.580;5.170;2023-10-13T08:37:19;19.40;99.90
47382;DHT22;33128;51.580;5.170;2023-10-13T08:39:49;19.40;99.90
47382;DHT22;33128;51.580;5.170;2023-10-13T08:42:38;19.40;99.90
47382;DHT22;33128;51.580;5.170;2023-10-13T08:45:14;19.40;99.90
47382;DHT22;33128;51.580;5.170;2023-10-13T08:47:52;19.50;99.90
47382;DHT22;33128;51.580;5.170;2023-10-13T08:50:51;19.40;99.90
47382;DHT22;33128;51.580;5.170;2023-10-13T08:53:29;19.50;99.90
47382;DHT22;33128;51.580;5.170;2023-10-13T08:56:12;19.50;99.90
47382;DHT22;33128;51.580;5.170;2023-10-13T08:58:44;19.50;99.90
47382;DHT22;33128;51.580;5.170;2023-10-13T09:04:50;19.50;99.90
47382;DHT22;33128;51.580;5.170;2023-10-13T09:07:25;19.50;99.90
47382;DHT22;33128;51.580;5.170;2023-10-13T09:09:51;19.50;99.90
47382;DHT22;33128;51.580;5.170;2023-10-13T09:12:21;19.50;99.90
47382;DHT22;33128;51.580;5.170;2023-10-13T09:15:01;19.50;99.90
47382;DHT22;33128;51.580;5.170;2023-10-13T09:17:54;19.50;99.90
47382;DHT22;33128;51.580;5.170;2023-10-13T09:20:38;19.50;99.90
47382;DHT22;33128;51.580;5.170;2023-10-13T09:23:23;19.50;99.90
47382;DHT22;33128;51.580;5.170;2023-10-13T09:26:13;19.50;99.90
47382;DHT22;33128;51.580;5.170;2023-10-13T09:28:40;19.60;99.90
47382;DHT22;33128;51.580;5.170;2023-10-13T09:31:05;19.60;99.90
47382;DHT22;33128;51.580;5.170;2023-10-13T09:33:33;19.60;99.90
47382;DHT22;33128;51.580;5.170;2023-10-13T09:36:03;19.60;99.90
47382;DHT22;33128;51.580;5.170;2023-10-13T09:38:38;19.60;99.90
47382;DHT22;33128;51.580;5.170;2023-10-13T09:41:06;19.70;99.90
47382;DHT22;33128;51.580;5.170;2023-10-13T09:43:45;19.70;99.90
47382;DHT22;33128;51.580;5.170;2023-10-13T09:46:19;19.70;99.90
47382;DHT22;33128;51.580;5.170;2023-10-13T09:49:11;19.70;99.90
47382;DHT22;33128;51.580;5.170;2023-10-13T09:51:41;19.70;99.90
47382;DHT22;33128;51.580;5.170;2023-10-13T09:54:31;19.80;99.90
47382;DHT22;33128;51.580;5.170;2023-10-13T09:57:16;19.90;99.90
47382;DHT22;33128;51.580;5.170;2023-10-13T09:59:58;19.90;99.90
47382;DHT22;33128;51.580;5.170;2023-10-13T10:02:34;19.80;99.90
47382;DHT22;33128;51.580;5.170;2023-10-13T10:05:00;19.80;99.90
47382;DHT22;33128;51.580;5.170;2023-10-13T10:07:54;19.80;99.90
47382;DHT22;33128;51.580;5.170;2023-10-13T10:10:47;19.80;99.90
47382;DHT22;33128;51.580;5.170;2023-10-13T10:16:18;19.80;99.90
47382;DHT22;33128;51.580;5.170;2023-10-13T10:18:59;19.80;99.90
47382;DHT22;33128;51.580;5.170;2023-10-13T10:21:35;19.80;99.90
47382;DHT22;33128;51.580;5.170;2023-10-13T10:24:01;19.80;99.90
47382;DHT22;33128;51.580;5.170;2023-10-13T10:26:33;19.80;99.90
47382;DHT22;33128;51.580;5.170;2023-10-13T10:28:58;19.80;99.90
47382;DHT22;33128;51.580;5.170;2023-10-13T10:31:33;19.90;99.90
47382;DHT22;33128;51.580;5.170;2023-10-13T10:34:13;19.90;99.90
47382;DHT22;33128;51.580;5.170;2023-10-13T10:36:40;19.90;99.90
47382;DHT22;33128;51.580;5.170;2023-10-13T10:39:08;19.90;99.90
47382;DHT22;33128;51.580;5.170;2023-10-13T10:41:46;19.90;99.90
47382;DHT22;33128;51.580;5.170;2023-10-13T10:44:17;20.00;99.90
47382;DHT22;33128;51.580;5.170;2023-10-13T10:47:14;20.00;99.90
47382;DHT22;33128;51.580;5.170;2023-10-13T10:49:45;20.00;99.90
47382;DHT22;33128;51.580;5.170;2023-10-13T10:52:16;20.00;99.90
47382;DHT22;33128;51.580;5.170;2023-10-13T10:54:44;20.00;99.90
47382;DHT22;33128;51.580;5.170;2023-10-13T10:57:10;20.00;99.90
47382;DHT22;33128;51.580;5.170;2023-10-13T10:59:43;19.90;99.90
47382;DHT22;33128;51.580;5.170;2023-10-13T11:02:10;19.90;99.90
47382;DHT22;33128;51.580;5.170;2023-10-13T11:04:41;19.80;99.90
47382;DHT22;33128;51.580;5.170;2023-10-13T11:07:21;19.90;99.90
47382;DHT22;33128;51.580;5.170;2023-10-13T11:09:47;19.80;99.90
47382;DHT22;33128;51.580;5.170;2023-10-13T11:12:14;19.80;99.90
47382;DHT22;33128;51.580;5.170;2023-10-13T11:14:49;19.80;99.90
47382;DHT22;33128;51.580;5.170;2023-10-13T11:17:23;19.80;99.90
47382;DHT22;33128;51.580;5.170;2023-10-13T11:20:11;19.80;99.90
47382;DHT22;33128;51.580;5.170;2023-10-13T11:22:48;19.80;99.90
47382;DHT22;33128;51.580;5.170;2023-10-13T11:25:23;19.80;99.90
47382;DHT22;33128;51.580;5.170;2023-10-13T11:27:57;19.80;99.90
47382;DHT22;33128;51.580;5.170;2023-10-13T11:30:32;19.90;99.90
47382;DHT22;33128;51.580;5.170;2023-10-13T11:35:53;19.90;99.90
47382;DHT22;33128;51.580;5.170;2023-10-13T11:41:02;19.90;99.90
47382;DHT22;33128;51.580;5.170;2023-10-13T11:43:45;19.90;99.90
47382;DHT22;33128;51.580;5.170;2023-10-13T11:46:35;19.90;99.90
47382;DHT22;33128;51.580;5.170;2023-10-13T11:49:09;19.90;99.90
47382;DHT22;33128;51.580;5.170;2023-10-13T11:51:53;19.90;99.90
47382;DHT22;33128;51.580;5.170;2023-10-13T11:54:41;19.90;99.90
47382;DHT22;33128;51.580;5.170;2023-10-13T11:57:08;19.90;99.90
47382;DHT22;33128;51.580;5.170;2023-10-13T11:59:33;19.90;99.90
47382;DHT22;33128;51.580;5.170;2023-10-13T12:02:01;19.90;99.90
47382;DHT22;33128;51.580;5.170;2023-10-13T12:04:50;19.90;99.90
47382;DHT22;33128;51.580;5.170;2023-10-13T12:07:25;19.90;99.90
47382;DHT22;33128;51.580;5.170;2023-10-13T12:10:11;19.90;99.90
47382;DHT22;33128;51.580;5.170;2023-10-13T12:13:03;19.90;99.90
47382;DHT22;33128;51.580;5.170;2023-10-13T12:15:35;19.90;99.90
47382;DHT22;33128;51.580;5.170;2023-10-13T12:18:16;19.90;99.90
47382;DHT22;33128;51.580;5.170;2023-10-13T12:20:44;19.90;99.90
47382;DHT22;33128;51.580;5.170;2023-10-13T12:23:12;19.90;99.90
47382;DHT22;33128;51.580;5.170;2023-10-13T12:25:42;19.90;99.90
47382;DHT22;33128;51.580;5.170;2023-10-13T12:28:23;19.90;99.90
47382;DHT22;33128;51.580;5.170;2023-10-13T12:30:50;19.90;99.90
47382;DHT22;33128;51.580;5.170;2023-10-13T12:33:23;19.90;99.90
47382;DHT22;33128;51.580;5.170;2023-10-13T12:36:06;19.90;99.90
47382;DHT22;33128;51.580;5.170;2023-10-13T12:38:35;19.90;99.90
47382;DHT22;33128;51.580;5.170;2023-10-13T12:41:17;19.90;99.90
47382;DHT22;33128;51.580;5.170;2023-10-13T12:44:05;19.90;99.90
47382;DHT22;33128;51.580;5.170;2023-10-13T12:46:53;19.90;99.90
47382;DHT22;33128;51.580;5.170;2023-10-13T12:49:37;19.90;99.90
47382;DHT22;33128;51.580;5.170;2023-10-13T12:52:06;19.90;99.90
47382;DHT22;33128;51.580;5.170;2023-10-13T12:54:42;19.90;99.90
47382;DHT22;33128;51.580;5.170;2023-10-13T12:57:14;19.90;99.90
47382;DHT22;33128;51.580;5.170;2023-10-13T12:59:39;19.90;99.90
47382;DHT22;33128;51.580;5.170;2023-10-13T13:02:06;19.90;99.90
47382;DHT22;33128;51.580;5.170;2023-10-13T13:04:33;19.90;99.90
47382;DHT22;33128;51.580;5.170;2023-10-13T13:07:02;19.90;99.90
47382;DHT22;33128;51.580;5.170;2023-10-13T13:09:43;19.90;99.90
47382;DHT22;33128;51.580;5.170;2023-10-13T13:12:09;19.90;99.90
47382;DHT22;33128;51.580;5.170;2023-10-13T13:14:38;19.90;99.90
47382;DHT22;33128;51.580;5.170;2023-10-13T13:17:18;20.00;99.90
47382;DHT22;33128;51.580;5.170;2023-10-13T13:19:44;19.90;99.90
47382;DHT22;33128;51.580;5.170;2023-10-13T13:22:10;19.90;99.90
47382;DHT22;33128;51.580;5.170;2023-10-13T13:24:54;19.90;99.90
47382;DHT22;33128;51.580;5.170;2023-10-13T13:27:19;19.90;99.90
47382;DHT22;33128;51.580;5.170;2023-10-13T13:29:48;20.00;99.90
47382;DHT22;33128;51.580;5.170;2023-10-13T13:32:13;19.90;99.90
47382;DHT22;33128;51.580;5.170;2023-10-13T13:35:04;20.00;99.90
47382;DHT22;33128;51.580;5.170;2023-10-13T13:37:33;19.90;99.90
47382;DHT22;33128;51.580;5.170;2023-10-13T13:39:59;19.90;99.90
47382;DHT22;33128;51.580;5.170;2023-10-13T13:42:52;19.90;99.90
47382;DHT22;33128;51.580;5.170;2023-10-13T13:45:19;20.00;99.90
47382;DHT22;33128;51.580;5.170;2023-10-13T13:47:58;20.00;99.90
47382;DHT22;33128;51.580;5.170;2023-10-13T13:50:27;19.90;99.90
47382;DHT22;33128;51.580;5.170;2023-10-13T13:53:09;20.00;99.90
47382;DHT22;33128;51.580;5.170;2023-10-13T13:55:36;20.00;99.90
47382;DHT22;33128;51.580;5.170;2023-10-13T13:58:05;20.00;99.90
47382;DHT22;33128;51.580;5.170;2023-10-13T14:00:33;20.00;99.90
47382;DHT22;33128;51.580;5.170;2023-10-13T14:03:16;20.00;99.90
47382;DHT22;33128;51.580;5.170;2023-10-13T14:06:12;20.00;99.90
47382;DHT22;33128;51.580;5.170;2023-10-13T14:08:48;20.00;99.90
47382;DHT22;33128;51.580;5.170;2023-10-13T14:11:22;20.00;99.90
47382;DHT22;33128;51.580;5.170;2023-10-13T14:14:33;20.00;99.90
47382;DHT22;33128;51.580;5.170;2023-10-13T14:16:59;20.00;99.90
47382;DHT22;33128;51.580;5.170;2023-10-13T14:19:44;20.00;99.90
47382;DHT22;33128;51.580;5.170;2023-10-13T14:22:20;20.00;99.90
47382;DHT22;33128;51.580;5.170;2023-10-13T14:24:50;20.00;99.90
47382;DHT22;33128;51.580;5.170;2023-10-13T14:27:26;20.00;99.90
47382;DHT22;33128;51.580;5.170;2023-10-13T14:29:52;20.00;99.90
47382;DHT22;33128;51.580;5.170;2023-10-13T14:32:30;20.00;99.90
47382;DHT22;33128;51.580;5.170;2023-10-13T14:35:07;20.00;99.90
47382;DHT22;33128;51.580;5.170;2023-10-13T14:37:41;20.00;99.90
47382;DHT22;33128;51.580;5.170;2023-10-13T14:40:11;20.00;99.90
47382;DHT22;33128;51.580;5.170;2023-10-13T14:42:38;20.00;99.90
47382;DHT22;33128;51.580;5.170;2023-10-13T14:45:08;20.00;99.90
47382;DHT22;33128;51.580;5.170;2023-10-13T14:47:49;20.00;99.90
47382;DHT22;33128;51.580;5.170;2023-10-13T14:50:18;20.00;99.90
47382;DHT22;33128;51.580;5.170;2023-10-13T14:52:47;20.00;99.90
47382;DHT22;33128;51.580;5.170;2023-10-13T14:55:16;20.00;99.90
47382;DHT22;33128;51.580;5.170;2023-10-13T14:58:00;20.00;99.90
47382;DHT22;33128;51.580;5.170;2023-10-13T15:00:30;20.00;99.90
47382;DHT22;33128;51.580;5.170;2023-10-13T15:02:58;20.00;99.90
47382;DHT22;33128;51.580;5.170;2023-10-13T15:05:43;20.00;99.90
47382;DHT22;33128;51.580;5.170;2023-10-13T15:08:11;20.00;99.90
47382;DHT22;33128;51.580;5.170;2023-10-13T15:10:37;20.00;99.90
47382;DHT22;33128;51.580;5.170;2023-10-13T15:13:03;20.00;99.90
47382;DHT22;33128;51.580;5.170;2023-10-13T15:15:36;20.00;99.90
47382;DHT22;33128;51.580;5.170;2023-10-13T15:18:07;20.00;99.90
47382;DHT22;33128;51.580;5.170;2023-10-13T15:20:40;20.00;99.90
47382;DHT22;33128;51.580;5.170;2023-10-13T15:23:21;20.00;99.90
47382;DHT22;33128;51.580;5.170;2023-10-13T15:26:07;20.00;99.90
47382;DHT22;33128;51.580;5.170;2023-10-13T15:28:50;20.00;99.90
47382;DHT22;33128;51.580;5.170;2023-10-13T15:31:22;20.00;99.90
47382;DHT22;33128;51.580;5.170;2023-10-13T15:33:53;20.00;99.90
47382;DHT22;33128;51.580;5.170;2023-10-13T15:36:31;20.00;99.90
47382;DHT22;33128;51.580;5.170;2023-10-13T15:38:57;20.00;99.90
47382;DHT22;33128;51.580;5.170;2023-10-13T15:43:52;20.00;99.90
47382;DHT22;33128;51.580;5.170;2023-10-13T15:46:23;20.00;99.90
47382;DHT22;33128;51.580;5.170;2023-10-13T15:48:49;20.00;99.90
47382;DHT22;33128;51.580;5.170;2023-10-13T15:51:15;20.00;99.90
47382;DHT22;33128;51.580;5.170;2023-10-13T15:53:42;20.00;99.90
47382;DHT22;33128;51.580;5.170;2023-10-13T15:56:13;20.00;99.90
47382;DHT22;33128;51.580;5.170;2023-10-13T15:58:54;20.00;99.90
47382;DHT22;33128;51.580;5.170;2023-10-13T16:01:21;20.00;99.90
47382;DHT22;33128;51.580;5.170;2023-10-13T16:03:49;20.00;99.90
47382;DHT22;33128;51.580;5.170;2023-10-13T16:06:18;20.00;99.90
47382;DHT22;33128;51.580;5.170;2023-10-13T16:08:51;20.00;99.90
47382;DHT22;33128;51.580;5.170;2023-10-13T16:11:20;20.00;99.90
47382;DHT22;33128;51.580;5.170;2023-10-13T16:13:48;20.00;99.90
47382;DHT22;33128;51.580;5.170;2023-10-13T16:16:18;20.00;99.90
47382;DHT22;33128;51.580;5.170;2023-10-13T16:18:45;20.00;99.90
47382;DHT22;33128;51.580;5.170;2023-10-13T16:21:21;20.00;99.90
47382;DHT22;33128;51.580;5.170;2023-10-13T16:23:47;20.00;99.90
47382;DHT22;33128;51.580;5.170;2023-10-13T16:26:14;20.00;99.90
47382;DHT22;33128;51.580;5.170;2023-10-13T16:28:39;20.00;99.90
47382;DHT22;33128;51.580;5.170;2023-10-13T16:31:06;20.00;99.90
47382;DHT22;33128;51.580;5.170;2023-10-13T16:33:35;20.00;99.90
47382;DHT22;33128;51.580;5.170;2023-10-13T16:36:06;20.00;99.90
47382;DHT22;33128;51.580;5.170;2023-10-13T16:38:43;20.00;99.90